createdAt,value
2018-08-09T00:02:03.620Z,7.13
2018-08-09T00:04:35.505Z,7.23
2018-08-09T00:07:07.197Z,7.07
2018-08-09T00:09:39.113Z,6.70
2018-08-09T00:12:11.042Z,5.43
2018-08-09T00:14:42.625Z,7.17
2018-08-09T00:17:14.334Z,6.03
2018-08-09T00:19:45.954Z,6.03
2018-08-09T00:22:17.834Z,7.10
2018-08-09T00:24:49.600Z,6.53
2018-08-09T00:27:21.253Z,8.73
2018-08-09T00:29:52.988Z,6.50
2018-08-09T00:32:24.954Z,9.70
2018-08-09T00:34:56.775Z,8.20
2018-08-09T00:37:28.626Z,6.17
2018-08-09T00:40:00.504Z,8.90
2018-08-09T00:42:32.137Z,6.27
2018-08-09T00:45:03.809Z,6.10
2018-08-09T00:47:35.755Z,6.43
2018-08-09T00:50:07.890Z,8.97
2018-08-09T00:52:40.017Z,7.30
2018-08-09T00:55:11.893Z,6.60
2018-08-09T00:57:43.786Z,8.17
2018-08-09T01:00:15.592Z,8.47
2018-08-09T01:02:47.499Z,7.23
2018-08-09T01:05:19.297Z,8.20
2018-08-09T01:07:50.948Z,7.17
2018-08-09T01:10:22.779Z,9.30
2018-08-09T01:12:54.566Z,10.33
2018-08-09T01:15:26.331Z,6.83
2018-08-09T01:17:58.262Z,8.93
2018-08-09T01:20:30.068Z,8.33
2018-08-09T01:23:01.994Z,7.27
2018-08-09T01:25:33.773Z,7.53
2018-08-09T01:28:05.658Z,7.60
2018-08-09T01:30:37.237Z,7.90
2018-08-09T01:33:08.955Z,6.37
2018-08-09T01:35:40.682Z,7.43
2018-08-09T01:38:12.360Z,8.00
2018-08-09T01:40:44.247Z,7.03
2018-08-09T01:43:32.081Z,6.07
2018-08-09T01:46:03.944Z,6.83
2018-08-09T01:48:35.644Z,6.90
2018-08-09T01:51:07.546Z,8.50
2018-08-09T01:53:39.364Z,9.10
2018-08-09T01:56:11.240Z,10.57
2018-08-09T01:58:43.095Z,6.67
2018-08-09T02:01:15.038Z,6.33
2018-08-09T02:03:47.128Z,4.93
2018-08-09T02:06:19.648Z,7.53
2018-08-09T02:08:51.280Z,7.40
2018-08-09T02:11:23.124Z,4.57
2018-08-09T02:13:54.892Z,4.47
2018-08-09T02:16:26.978Z,8.03
2018-08-09T02:18:58.757Z,5.77
2018-08-09T02:21:30.662Z,6.83
2018-08-09T02:24:02.549Z,7.63
2018-08-09T02:26:34.440Z,6.80
2018-08-09T02:29:06.270Z,6.10
2018-08-09T02:31:38.061Z,10.03
2018-08-09T02:34:10.044Z,9.53
2018-08-09T02:36:41.860Z,7.87
2018-08-09T02:39:13.627Z,5.67
2018-08-09T02:41:45.476Z,7.23
2018-08-09T02:44:17.236Z,6.80
2018-08-09T02:46:49.100Z,6.13
2018-08-09T02:49:20.741Z,8.13
2018-08-09T02:51:52.603Z,6.60
2018-08-09T02:54:24.257Z,6.97
2018-08-09T02:56:56.044Z,9.70
2018-08-09T02:59:27.756Z,7.43
2018-08-09T03:01:59.663Z,7.00
2018-08-09T03:04:31.438Z,6.40
2018-08-09T03:07:03.148Z,7.37
2018-08-09T03:09:34.841Z,4.50
2018-08-09T03:12:07.161Z,8.80
2018-08-09T03:14:39.126Z,7.07
2018-08-09T03:17:11.243Z,8.03
2018-08-09T03:19:43.506Z,6.47
2018-08-09T03:22:15.573Z,8.43
2018-08-09T03:24:47.647Z,10.10
2018-08-09T03:27:19.401Z,6.13
2018-08-09T03:29:51.252Z,5.93
2018-08-09T03:32:23.120Z,5.80
2018-08-09T03:34:54.859Z,5.40
2018-08-09T03:37:26.546Z,5.93
2018-08-09T03:39:58.293Z,7.57
2018-08-09T03:42:30.074Z,6.80
2018-08-09T03:45:01.823Z,9.03
2018-08-09T03:47:33.644Z,5.23
2018-08-09T03:50:05.515Z,6.67
2018-08-09T03:52:37.401Z,7.47
2018-08-09T03:55:09.238Z,6.60
2018-08-09T03:57:41.028Z,6.30
2018-08-09T04:00:12.989Z,7.17
2018-08-09T04:02:44.809Z,8.37
2018-08-09T04:05:16.724Z,6.03
2018-08-09T04:07:48.463Z,7.63
2018-08-09T04:10:20.217Z,7.10
2018-08-09T04:12:52.156Z,8.03
2018-08-09T04:15:23.963Z,7.13
2018-08-09T04:17:56.768Z,7.63
2018-08-09T04:20:28.689Z,10.63
2018-08-09T04:23:00.441Z,8.73
2018-08-09T04:25:32.209Z,7.30
2018-08-09T04:28:04.052Z,5.73
2018-08-09T04:30:35.615Z,6.33
2018-08-09T04:33:07.550Z,6.63
2018-08-09T04:35:39.218Z,5.67
2018-08-09T04:38:11.076Z,4.67
2018-08-09T04:40:42.860Z,5.50
2018-08-09T04:43:14.512Z,9.10
2018-08-09T04:45:46.247Z,9.20
2018-08-09T04:48:17.923Z,9.10
2018-08-09T04:50:49.821Z,9.80
2018-08-09T04:53:21.679Z,7.03
2018-08-09T04:55:53.393Z,8.27
2018-08-09T04:58:25.098Z,8.87
2018-08-09T05:00:57.019Z,10.27
2018-08-09T05:03:28.816Z,9.57
2018-08-09T05:06:00.543Z,8.00
2018-08-09T05:08:32.415Z,8.90
2018-08-09T05:11:04.401Z,10.20
2018-08-09T05:13:36.087Z,8.77
2018-08-09T05:16:07.960Z,6.60
2018-08-09T05:18:39.633Z,6.20
2018-08-09T05:21:11.597Z,8.03
2018-08-09T05:23:43.275Z,6.23
2018-08-09T05:26:15.009Z,7.77
2018-08-09T05:28:46.792Z,6.57
2018-08-09T05:31:18.521Z,6.50
2018-08-09T05:33:50.190Z,5.73
2018-08-09T05:36:22.056Z,11.63
2018-08-09T05:38:53.724Z,9.10
2018-08-09T05:41:25.572Z,9.00
2018-08-09T05:43:57.526Z,9.43
2018-08-09T05:46:29.380Z,9.67
2018-08-09T05:49:01.169Z,8.57
2018-08-09T05:51:33.004Z,9.47
2018-08-09T05:54:04.709Z,8.00
2018-08-09T05:56:36.571Z,11.53
2018-08-09T05:59:08.433Z,8.97
2018-08-09T06:01:40.253Z,7.93
2018-08-09T06:04:12.052Z,7.53
2018-08-09T06:06:43.763Z,7.37
2018-08-09T06:09:15.546Z,9.70
2018-08-09T06:11:47.481Z,5.73
2018-08-09T06:14:19.297Z,6.80
2018-08-09T06:16:51.105Z,7.77
2018-08-09T06:19:22.891Z,7.33
2018-08-09T06:21:54.737Z,7.33
2018-08-09T06:24:26.386Z,7.13
2018-08-09T06:26:58.343Z,5.63
2018-08-09T06:29:30.070Z,5.50
2018-08-09T06:32:01.961Z,4.00
2018-08-09T06:34:33.748Z,4.57
2018-08-09T06:37:05.588Z,6.50
2018-08-09T06:39:37.377Z,5.67
2018-08-09T06:42:09.336Z,4.00
2018-08-09T06:44:41.095Z,5.43
2018-08-09T06:47:12.861Z,4.13
2018-08-09T06:49:44.514Z,3.60
2018-08-09T06:52:16.460Z,5.03
2018-08-09T06:54:48.129Z,6.77
2018-08-09T06:57:19.984Z,3.70
2018-08-09T06:59:51.741Z,6.60
2018-08-09T07:02:23.619Z,4.77
2018-08-09T07:04:55.369Z,4.03
2018-08-09T07:07:27.222Z,5.10
2018-08-09T07:09:59.165Z,5.03
2018-08-09T07:12:31.292Z,5.00
2018-08-09T07:15:02.915Z,8.40
2018-08-09T07:17:34.801Z,6.37
2018-08-09T07:20:07.693Z,6.30
2018-08-09T07:22:40.835Z,3.93
2018-08-09T07:25:12.616Z,4.90
2018-08-09T07:27:45.257Z,3.80
2018-08-09T07:30:17.148Z,4.93
2018-08-09T07:32:49.198Z,3.70
2018-08-09T07:35:20.921Z,5.00
2018-08-09T07:37:52.912Z,4.40
2018-08-09T07:40:24.829Z,4.17
2018-08-09T07:42:56.691Z,5.60
2018-08-09T07:45:28.302Z,5.37
2018-08-09T07:48:00.215Z,5.17
2018-08-09T07:50:32.029Z,4.60
2018-08-09T07:53:03.821Z,3.50
2018-08-09T07:55:35.754Z,3.17
2018-08-09T07:58:07.455Z,4.00
2018-08-09T08:00:39.369Z,6.67
2018-08-09T08:03:11.161Z,4.73
2018-08-09T08:05:43.032Z,4.43
2018-08-09T08:08:14.688Z,4.97
2018-08-09T08:10:48.586Z,4.67
2018-08-09T08:13:21.547Z,6.90
2018-08-09T08:15:53.633Z,4.57
2018-08-09T08:18:25.606Z,5.27
2018-08-09T08:20:57.380Z,4.47
2018-08-09T08:23:29.317Z,3.77
2018-08-09T08:26:01.093Z,3.40
2018-08-09T08:28:32.837Z,3.70
2018-08-09T08:31:04.666Z,4.37
2018-08-09T08:33:36.672Z,4.30
2018-08-09T08:36:09.536Z,2.93
2018-08-09T08:38:41.429Z,2.57
2018-08-09T08:41:13.281Z,3.70
2018-08-09T08:43:45.208Z,2.57
2018-08-09T08:46:17.001Z,4.00
2018-08-09T08:48:48.656Z,3.73
2018-08-09T08:51:20.474Z,3.00
2018-08-09T08:53:52.250Z,4.57
2018-08-09T08:56:24.292Z,4.00
2018-08-09T08:58:55.992Z,3.47
2018-08-09T09:01:27.817Z,3.40
2018-08-09T09:03:59.776Z,2.90
2018-08-09T09:06:31.390Z,3.00
2018-08-09T09:09:03.441Z,3.10
2018-08-09T09:11:35.419Z,4.17
2018-08-09T09:14:07.261Z,4.47
2018-08-09T09:16:39.205Z,6.10
2018-08-09T09:19:11.122Z,4.57
2018-08-09T09:21:42.741Z,4.43
2018-08-09T09:24:14.678Z,5.87
2018-08-09T09:29:18.220Z,5.13
2018-08-09T09:31:49.944Z,4.13
2018-08-09T09:34:21.634Z,4.63
2018-08-09T09:36:53.417Z,4.80
2018-08-09T09:39:25.158Z,4.27
2018-08-09T09:41:56.984Z,5.17
2018-08-09T09:44:28.773Z,3.40
2018-08-09T09:47:00.866Z,4.53
2018-08-09T09:49:32.675Z,4.20
2018-08-09T09:52:04.588Z,4.00
2018-08-09T09:54:36.428Z,4.17
2018-08-09T09:57:08.100Z,4.00
2018-08-09T09:59:39.809Z,3.30
2018-08-09T10:02:11.568Z,4.10
2018-08-09T10:04:43.242Z,5.53
2018-08-09T10:07:15.030Z,3.90
2018-08-09T10:09:46.767Z,4.00
2018-08-09T10:12:18.532Z,3.57
2018-08-09T10:14:50.180Z,3.50
2018-08-09T10:17:21.938Z,3.87
2018-08-09T10:19:53.651Z,5.83
2018-08-09T10:22:25.451Z,4.10
2018-08-09T10:24:57.209Z,3.63
2018-08-09T10:27:28.864Z,3.87
2018-08-09T10:30:00.699Z,4.40
2018-08-09T10:32:32.525Z,5.37
2018-08-09T10:35:04.234Z,3.80
2018-08-09T10:37:35.906Z,3.93
2018-08-09T10:40:07.765Z,3.53
2018-08-09T10:42:39.437Z,6.90
2018-08-09T10:45:11.379Z,3.77
2018-08-09T10:47:43.154Z,3.73
2018-08-09T10:50:15.089Z,4.23
2018-08-09T10:52:46.986Z,4.83
2018-08-09T10:55:18.864Z,5.07
2018-08-09T10:57:50.677Z,4.17
2018-08-09T11:00:22.459Z,4.30
2018-08-09T11:02:54.291Z,2.70
2018-08-09T11:05:26.052Z,4.13
2018-08-09T11:07:57.739Z,4.47
2018-08-09T11:10:29.517Z,3.33
2018-08-09T11:13:01.383Z,3.23
2018-08-09T11:15:33.253Z,3.60
2018-08-09T11:18:05.105Z,3.20
2018-08-09T11:20:36.812Z,4.40
2018-08-09T11:23:08.621Z,4.00
2018-08-09T11:25:40.352Z,4.67
2018-08-09T11:28:12.243Z,2.47
2018-08-09T11:30:44.158Z,3.03
2018-08-09T11:33:15.964Z,2.93
2018-08-09T11:35:47.781Z,4.63
2018-08-09T11:38:19.446Z,2.90
2018-08-09T11:40:51.123Z,5.33
2018-08-09T11:43:22.903Z,3.43
2018-08-09T11:45:54.626Z,3.20
2018-08-09T11:48:26.466Z,3.57
2018-08-09T11:50:58.378Z,2.97
2018-08-09T11:53:30.121Z,2.53
2018-08-09T11:56:01.989Z,3.27
2018-08-09T11:58:33.645Z,3.07
2018-08-09T12:01:05.470Z,2.73
2018-08-09T12:03:37.309Z,2.60
2018-08-09T12:06:09.235Z,3.80
2018-08-09T12:08:41.166Z,4.63
2018-08-09T12:11:13.145Z,3.77
2018-08-09T12:13:45.226Z,4.73
2018-08-09T12:16:17.069Z,3.10
2018-08-09T12:18:49.006Z,3.53
2018-08-09T12:21:20.977Z,4.03
2018-08-09T12:23:52.759Z,2.67
2018-08-09T12:26:24.709Z,2.77
2018-08-09T12:28:56.556Z,2.67
2018-08-09T12:31:28.365Z,2.70
2018-08-09T12:34:00.173Z,2.60
2018-08-09T12:36:32.094Z,3.33
2018-08-09T12:39:04.277Z,4.30
2018-08-09T12:41:36.090Z,3.13
2018-08-09T12:44:08.042Z,4.50
2018-08-09T12:46:39.952Z,3.13
2018-08-09T12:49:11.802Z,3.00
2018-08-09T12:51:43.646Z,3.10
2018-08-09T12:54:15.629Z,4.30
2018-08-09T12:56:47.356Z,4.27
2018-08-09T12:59:19.221Z,2.90
2018-08-09T13:01:51.211Z,2.87
2018-08-09T13:04:22.941Z,5.07
2018-08-09T13:06:54.853Z,3.10
2018-08-09T13:09:26.669Z,2.80
2018-08-09T13:11:58.713Z,3.27
2018-08-09T13:14:30.481Z,3.60
2018-08-09T13:17:02.337Z,2.90
2018-08-09T13:19:34.344Z,7.70
2018-08-09T13:22:06.058Z,3.30
2018-08-09T13:24:37.736Z,3.03
2018-08-09T13:27:09.485Z,3.90
2018-08-09T13:29:41.350Z,3.90
2018-08-09T13:32:13.137Z,3.00
2018-08-09T13:34:45.061Z,2.60
2018-08-09T13:37:17.130Z,2.50
2018-08-09T13:39:48.839Z,4.17
2018-08-09T13:42:20.633Z,3.27
2018-08-09T13:44:52.517Z,3.83
2018-08-09T13:47:24.181Z,2.90
2018-08-09T13:49:55.894Z,3.77
2018-08-09T13:52:27.706Z,3.77
2018-08-09T13:54:59.652Z,3.00
2018-08-09T13:57:31.404Z,4.77
2018-08-09T14:00:03.289Z,5.20
2018-08-09T14:02:35.138Z,2.60
2018-08-09T14:05:08.117Z,4.57
2018-08-09T14:07:41.613Z,2.97
2018-08-09T14:10:13.764Z,2.87
2018-08-09T14:12:45.626Z,2.60
2018-08-09T14:15:17.427Z,2.67
2018-08-09T14:17:49.366Z,3.13
2018-08-09T14:20:21.209Z,5.10
2018-08-09T14:22:53.230Z,3.43
2018-08-09T14:25:25.004Z,3.20
2018-08-09T14:27:56.831Z,2.93
2018-08-09T14:30:28.777Z,3.65
2018-08-09T14:33:00.769Z,4.27
2018-08-09T14:35:32.439Z,3.43
2018-08-09T14:38:04.228Z,3.20
2018-08-09T14:40:36.203Z,4.97
2018-08-09T14:43:08.137Z,3.63
2018-08-09T14:45:39.937Z,2.33
2018-08-09T14:48:11.910Z,5.30
2018-08-09T14:50:43.705Z,5.63
2018-08-09T14:53:15.545Z,4.03
2018-08-09T14:55:47.374Z,2.90
2018-08-09T14:58:19.245Z,2.73
2018-08-09T15:00:51.042Z,3.23
2018-08-09T15:03:22.895Z,1.97
2018-08-09T15:05:54.624Z,2.40
2018-08-09T15:08:26.405Z,3.47
2018-08-09T15:10:58.189Z,4.43
2018-08-09T15:13:30.112Z,2.60
2018-08-09T15:16:02.058Z,5.03
2018-08-09T15:18:33.795Z,2.80
2018-08-09T15:21:05.601Z,3.60
2018-08-09T15:23:37.542Z,2.20
2018-08-09T15:26:09.521Z,2.57
2018-08-09T15:28:41.524Z,2.60
2018-08-09T15:31:13.241Z,1.60
2018-08-09T15:33:45.101Z,3.60
2018-08-09T15:36:17.068Z,2.73
2018-08-09T15:38:49.009Z,3.20
2018-08-09T15:41:20.809Z,3.17
2018-08-09T15:43:52.636Z,2.57
2018-08-09T15:46:24.601Z,2.93
2018-08-09T15:48:56.412Z,3.50
2018-08-09T15:51:28.261Z,16.83
2018-08-09T15:54:00.189Z,12.57
2018-08-09T15:56:32.148Z,11.60
2018-08-09T15:59:04.003Z,13.00
2018-08-09T16:01:35.930Z,18.87
2018-08-09T16:04:07.730Z,7.77
2018-08-09T16:06:39.585Z,15.40
2018-08-09T16:09:16.252Z,4.80
2018-08-09T16:11:48.146Z,8.00
2018-08-09T16:14:19.992Z,6.40
2018-08-09T16:16:51.858Z,6.93
2018-08-09T16:19:23.625Z,8.90
2018-08-09T16:21:55.512Z,4.13
2018-08-09T16:24:27.437Z,4.70
2018-08-09T16:26:59.470Z,7.53
2018-08-09T16:29:31.396Z,2.70
2018-08-09T16:32:03.276Z,4.50
2018-08-09T16:34:35.108Z,4.50
2018-08-09T16:37:07.258Z,5.37
2018-08-09T16:39:39.129Z,3.60
2018-08-09T16:42:11.132Z,3.30
2018-08-09T16:44:42.869Z,2.57
2018-08-09T16:47:14.730Z,5.60
2018-08-09T16:49:46.654Z,4.10
2018-08-09T16:52:18.476Z,2.43
2018-08-09T16:54:50.312Z,4.27
2018-08-09T16:57:22.145Z,2.40
2018-08-09T16:59:53.925Z,3.17
2018-08-09T17:02:25.677Z,3.77
2018-08-09T17:04:57.529Z,1.93
2018-08-09T17:07:29.553Z,3.13
2018-08-09T17:10:01.278Z,1.30
2018-08-09T17:12:33.130Z,3.80
2018-08-09T17:15:05.531Z,1.40
2018-08-09T17:17:37.509Z,2.27
2018-08-09T17:20:15.426Z,2.37
2018-08-09T17:22:47.363Z,2.60
2018-08-09T17:25:19.401Z,1.77
2018-08-09T17:27:51.579Z,1.63
2018-08-09T17:30:25.530Z,3.03
2018-08-09T17:32:58.034Z,1.97
2018-08-09T17:35:29.897Z,2.20
2018-08-09T17:38:01.902Z,1.97
2018-08-09T17:40:34.716Z,1.90
2018-08-09T17:43:06.621Z,3.83
2018-08-09T17:45:38.488Z,2.00
2018-08-09T17:48:10.378Z,2.70
2018-08-09T17:50:42.292Z,1.30
2018-08-09T17:53:14.251Z,2.23
2018-08-09T17:55:46.051Z,3.70
2018-08-09T17:58:17.856Z,1.83
2018-08-09T18:00:49.732Z,2.27
2018-08-09T18:03:21.599Z,2.07
2018-08-09T18:05:53.434Z,1.50
2018-08-09T18:08:25.245Z,2.47
2018-08-09T18:10:57.128Z,1.77
2018-08-09T18:13:28.855Z,2.43
2018-08-09T18:16:00.725Z,2.37
2018-08-09T18:18:32.558Z,1.80
2018-08-09T18:21:04.532Z,3.23
2018-08-09T18:23:36.285Z,2.80
2018-08-09T18:26:08.250Z,2.80
2018-08-09T18:28:40.150Z,1.60
2018-08-09T18:31:11.989Z,2.47
2018-08-09T18:33:43.988Z,2.00
2018-08-09T18:36:15.789Z,1.93
2018-08-09T18:38:47.581Z,2.90
2018-08-09T18:41:19.537Z,2.13
2018-08-09T18:43:51.578Z,2.20
2018-08-09T18:46:23.597Z,2.20
2018-08-09T18:48:55.439Z,2.73
2018-08-09T18:51:27.382Z,4.80
2018-08-09T18:53:59.336Z,1.40
2018-08-09T18:56:31.405Z,2.97
2018-08-09T18:59:03.468Z,4.07
2018-08-09T19:01:35.285Z,3.83
2018-08-09T19:04:07.253Z,2.43
2018-08-09T19:06:39.097Z,1.60
2018-08-09T19:09:11.756Z,2.63
2018-08-09T19:11:43.641Z,2.53
2018-08-09T19:14:15.387Z,1.83
2018-08-09T19:16:47.316Z,2.47
2018-08-09T19:19:19.329Z,2.67
2018-08-09T19:21:50.926Z,2.77
2018-08-09T19:24:23.052Z,2.83
2018-08-09T19:26:55.028Z,3.43
2018-08-09T19:29:26.956Z,3.70
2018-08-09T19:31:58.761Z,2.73
2018-08-09T19:34:30.593Z,2.23
2018-08-09T19:37:02.476Z,2.60
2018-08-09T19:39:34.468Z,2.30
2018-08-09T19:42:06.491Z,2.20
2018-08-09T19:44:38.365Z,2.00
2018-08-09T19:47:10.388Z,1.60
2018-08-09T19:49:42.374Z,2.53
2018-08-09T19:52:14.192Z,1.67
2018-08-09T19:54:46.090Z,1.80
2018-08-09T19:57:17.937Z,2.63
2018-08-09T19:59:49.815Z,1.93
2018-08-09T20:02:21.789Z,3.63
2018-08-09T20:04:53.497Z,3.50
2018-08-09T20:07:25.290Z,2.23
2018-08-09T20:09:57.058Z,2.47
2018-08-09T20:12:29.080Z,2.90
2018-08-09T20:15:00.925Z,2.27
2018-08-09T20:17:32.781Z,1.80
2018-08-09T20:20:04.976Z,3.10
2018-08-09T20:22:36.943Z,2.43
2018-08-09T20:25:10.863Z,1.70
2018-08-09T20:27:43.229Z,2.83
2018-08-09T20:30:16.613Z,1.80
2018-08-09T20:32:48.849Z,2.47
2018-08-09T20:35:25.013Z,2.33
2018-08-09T20:37:56.859Z,2.03
2018-08-09T20:40:28.481Z,3.33
2018-08-09T20:43:00.375Z,1.80
2018-08-09T20:45:32.236Z,2.33
2018-08-09T20:48:04.120Z,2.70
2018-08-09T20:50:35.834Z,2.30
2018-08-09T20:53:07.789Z,1.60
2018-08-09T20:55:39.843Z,2.40
2018-08-09T20:58:11.698Z,1.67
2018-08-09T21:00:53.959Z,1.90
2018-08-09T21:03:28.056Z,2.73
2018-08-09T21:05:59.886Z,3.20
2018-08-09T21:08:35.628Z,2.27
2018-08-09T21:11:16.004Z,2.00
2018-08-09T21:13:48.712Z,5.47
2018-08-09T21:16:20.637Z,3.20
2018-08-09T21:18:52.548Z,2.97
2018-08-09T21:21:24.457Z,1.83
2018-08-09T21:23:56.812Z,2.73
2018-08-09T21:26:28.625Z,2.50
2018-08-09T21:29:00.559Z,3.93
2018-08-09T21:31:32.238Z,2.70
2018-08-09T21:34:04.103Z,3.63
2018-08-09T21:36:35.841Z,1.70
2018-08-09T21:39:10.857Z,4.33
2018-08-09T21:41:42.666Z,1.90
2018-08-09T21:44:14.522Z,3.27
2018-08-09T21:46:46.350Z,2.40
2018-08-09T21:49:18.142Z,3.73
2018-08-09T21:51:49.782Z,2.33
2018-08-09T21:54:21.726Z,4.43
2018-08-09T21:56:53.593Z,2.63
2018-08-09T21:59:25.309Z,2.77
2018-08-09T22:01:57.133Z,2.00
2018-08-09T22:04:29.122Z,2.00
2018-08-09T22:08:08.574Z,2.20
2018-08-09T22:10:45.307Z,2.13
2018-08-09T22:13:21.946Z,3.67
2018-08-09T22:15:58.886Z,3.27
2018-08-09T22:18:35.598Z,2.23
2018-08-09T22:21:12.484Z,2.60
2018-08-09T22:23:44.348Z,1.70
2018-08-09T22:26:16.275Z,2.70
2018-08-09T22:28:48.035Z,2.07
2018-08-09T22:31:19.880Z,2.90
2018-08-09T22:33:51.730Z,3.47
2018-08-09T22:36:23.589Z,3.80
2018-08-09T22:38:55.582Z,2.23
2018-08-09T22:41:27.444Z,1.50
2018-08-09T22:43:59.247Z,2.80
2018-08-09T22:46:31.269Z,3.40
2018-08-09T22:49:03.130Z,3.37
2018-08-09T22:51:34.970Z,2.17
2018-08-09T22:54:07.332Z,2.63
2018-08-09T22:56:39.812Z,2.50
2018-08-09T22:59:11.649Z,2.97
2018-08-09T23:01:43.601Z,2.70
2018-08-09T23:04:15.514Z,1.73
2018-08-09T23:06:47.370Z,2.47
2018-08-09T23:09:19.352Z,2.13
2018-08-09T23:11:51.089Z,2.13
2018-08-09T23:14:22.921Z,2.60
2018-08-09T23:16:54.876Z,2.30
2018-08-09T23:19:26.662Z,1.47
2018-08-09T23:21:58.431Z,4.23
2018-08-09T23:24:30.360Z,3.33
2018-08-09T23:27:02.873Z,2.60
2018-08-09T23:29:34.811Z,2.30
2018-08-09T23:32:06.626Z,2.87
2018-08-09T23:34:38.452Z,2.00
2018-08-09T23:37:10.314Z,2.13
2018-08-09T23:39:42.264Z,1.77
2018-08-09T23:42:14.011Z,3.00
2018-08-09T23:44:45.888Z,1.73
2018-08-09T23:47:17.838Z,2.70
2018-08-09T23:49:49.701Z,1.57
2018-08-09T23:52:21.550Z,2.47
2018-08-09T23:54:53.233Z,2.10
2018-08-09T23:57:25.125Z,1.60
2018-08-09T23:59:56.869Z,2.40
